Terminal Aerodrome Forecast
Issued by NWS

Home | Current Version | Previous Version | Text Only | Print | Product List | Glossary On
Versions: 1 2 3 4 5 6 7 8 9 10 11 12 13 14 15 16 17 18
000
FTUS43 KIND 011800 AAA
TAFHUF
TAF AMD
KHUF 011817Z 0118/0218 VRB04KT P6SM VCTS BKN040CB
     FM020200 VRB02KT P6SM BKN040
     FM020900 VRB02KT 4SM BR SCT040 BKN200
     FM021400 04006KT P6SM BKN060=

USA.gov is the U.S. government's official web portal to all federal, state and local government web resources and services.